sensor_id;sensor_type;location;lat;lon;timestamp;P1;durP1;ratioP1;P2;durP2;ratioP2
69981;SDS011;57319;56.274;43.980;2023-06-22T00:02:14;7.43;;;2.28;;
69981;SDS011;57319;56.274;43.980;2023-06-22T00:04:40;4.43;;;2.60;;
69981;SDS011;57319;56.274;43.980;2023-06-22T00:07:05;10.77;;;2.50;;
69981;SDS011;57319;56.274;43.980;2023-06-22T00:09:31;2.90;;;2.63;;
69981;SDS011;57319;56.274;43.980;2023-06-22T00:11:57;4.45;;;2.80;;
69981;SDS011;57319;56.274;43.980;2023-06-22T00:14:23;5.43;;;1.83;;
69981;SDS011;57319;56.274;43.980;2023-06-22T00:16:48;4.28;;;2.28;;
69981;SDS011;57319;56.274;43.980;2023-06-22T00:19:15;8.73;;;2.10;;
69981;SDS011;57319;56.274;43.980;2023-06-22T00:21:41;3.25;;;2.45;;
69981;SDS011;57319;56.274;43.980;2023-06-22T00:24:08;15.18;;;2.97;;
69981;SDS011;57319;56.274;43.980;2023-06-22T00:26:34;4.68;;;2.50;;
69981;SDS011;57319;56.274;43.980;2023-06-22T00:28:59;4.97;;;2.33;;
69981;SDS011;57319;56.274;43.980;2023-06-22T00:31:25;8.38;;;3.05;;
69981;SDS011;57319;56.274;43.980;2023-06-22T00:33:51;2.03;;;1.92;;
69981;SDS011;57319;56.274;43.980;2023-06-22T00:36:16;2.17;;;2.13;;
69981;SDS011;57319;56.274;43.980;2023-06-22T00:38:43;6.15;;;2.47;;
69981;SDS011;57319;56.274;43.980;2023-06-22T00:41:09;7.70;;;2.13;;
69981;SDS011;57319;56.274;43.980;2023-06-22T00:43:35;1.85;;;1.70;;
69981;SDS011;57319;56.274;43.980;2023-06-22T00:46:00;1.85;;;1.75;;
69981;SDS011;57319;56.274;43.980;2023-06-22T00:48:26;7.53;;;2.20;;
69981;SDS011;57319;56.274;43.980;2023-06-22T00:50:52;7.70;;;1.73;;
69981;SDS011;57319;56.274;43.980;2023-06-22T00:53:21;2.08;;;1.73;;
69981;SDS011;57319;56.274;43.980;2023-06-22T00:55:46;2.47;;;2.03;;
69981;SDS011;57319;56.274;43.980;2023-06-22T00:58:16;2.88;;;1.90;;
69981;SDS011;57319;56.274;43.980;2023-06-22T01:00:46;6.70;;;2.25;;
69981;SDS011;57319;56.274;43.980;2023-06-22T01:03:12;2.35;;;2.17;;
69981;SDS011;57319;56.274;43.980;2023-06-22T01:05:39;2.00;;;1.85;;
69981;SDS011;57319;56.274;43.980;2023-06-22T01:16:29;2.58;;;2.47;;
69981;SDS011;57319;56.274;43.980;2023-06-22T01:18:57;3.15;;;2.90;;
69981;SDS011;57319;56.274;43.980;2023-06-22T01:21:25;14.00;;;3.72;;
69981;SDS011;57319;56.274;43.980;2023-06-22T01:29:08;6.63;;;3.60;;
69981;SDS011;57319;56.274;43.980;2023-06-22T01:31:39;8.82;;;4.07;;
69981;SDS011;57319;56.274;43.980;2023-06-22T01:34:08;6.65;;;3.80;;
69981;SDS011;57319;56.274;43.980;2023-06-22T01:36:35;6.43;;;4.03;;
69981;SDS011;57319;56.274;43.980;2023-06-22T01:39:02;8.45;;;3.55;;
69981;SDS011;57319;56.274;43.980;2023-06-22T01:41:34;12.88;;;3.90;;
69981;SDS011;57319;56.274;43.980;2023-06-22T01:44:02;5.82;;;3.75;;
69981;SDS011;57319;56.274;43.980;2023-06-22T01:46:33;7.75;;;4.03;;
69981;SDS011;57319;56.274;43.980;2023-06-22T01:49:01;12.77;;;4.78;;
69981;SDS011;57319;56.274;43.980;2023-06-22T01:51:27;9.05;;;4.72;;
69981;SDS011;57319;56.274;43.980;2023-06-22T01:53:53;10.05;;;4.28;;
69981;SDS011;57319;56.274;43.980;2023-06-22T01:56:19;18.42;;;4.72;;
69981;SDS011;57319;56.274;43.980;2023-06-22T01:58:54;13.75;;;5.05;;
69981;SDS011;57319;56.274;43.980;2023-06-22T02:01:31;6.88;;;4.45;;
69981;SDS011;57319;56.274;43.980;2023-06-22T02:04:03;9.48;;;5.20;;
69981;SDS011;57319;56.274;43.980;2023-06-22T02:06:35;9.52;;;4.90;;
69981;SDS011;57319;56.274;43.980;2023-06-22T02:09:06;8.68;;;4.68;;
69981;SDS011;57319;56.274;43.980;2023-06-22T02:11:35;16.27;;;5.57;;
69981;SDS011;57319;56.274;43.980;2023-06-22T02:14:02;15.98;;;4.70;;
69981;SDS011;57319;56.274;43.980;2023-06-22T02:16:28;11.90;;;5.00;;
69981;SDS011;57319;56.274;43.980;2023-06-22T02:18:57;16.27;;;5.00;;
69981;SDS011;57319;56.274;43.980;2023-06-22T02:21:28;16.80;;;5.38;;
69981;SDS011;57319;56.274;43.980;2023-06-22T02:23:56;6.25;;;4.90;;
69981;SDS011;57319;56.274;43.980;2023-06-22T02:26:21;12.68;;;5.03;;
69981;SDS011;57319;56.274;43.980;2023-06-22T02:28:49;10.30;;;5.63;;
69981;SDS011;57319;56.274;43.980;2023-06-22T02:31:14;8.95;;;5.57;;
69981;SDS011;57319;56.274;43.980;2023-06-22T02:33:41;11.82;;;4.75;;
69981;SDS011;57319;56.274;43.980;2023-06-22T02:36:06;8.30;;;4.97;;
69981;SDS011;57319;56.274;43.980;2023-06-22T02:38:34;8.70;;;5.22;;
69981;SDS011;57319;56.274;43.980;2023-06-22T02:41:02;19.35;;;6.35;;
69981;SDS011;57319;56.274;43.980;2023-06-22T02:43:28;7.10;;;4.68;;
69981;SDS011;57319;56.274;43.980;2023-06-22T02:45:53;10.18;;;5.30;;
69981;SDS011;57319;56.274;43.980;2023-06-22T02:48:19;6.75;;;3.83;;
69981;SDS011;57319;56.274;43.980;2023-06-22T02:50:45;21.73;;;4.70;;
69981;SDS011;57319;56.274;43.980;2023-06-22T02:53:11;10.68;;;4.35;;
69981;SDS011;57319;56.274;43.980;2023-06-22T02:55:36;16.45;;;4.63;;
69981;SDS011;57319;56.274;43.980;2023-06-22T02:58:02;14.27;;;4.78;;
69981;SDS011;57319;56.274;43.980;2023-06-22T03:00:30;10.00;;;4.28;;
69981;SDS011;57319;56.274;43.980;2023-06-22T03:02:56;10.38;;;4.45;;
69981;SDS011;57319;56.274;43.980;2023-06-22T03:05:23;10.07;;;4.60;;
69981;SDS011;57319;56.274;43.980;2023-06-22T03:07:49;17.17;;;5.20;;
69981;SDS011;57319;56.274;43.980;2023-06-22T03:10:15;9.63;;;4.40;;
69981;SDS011;57319;56.274;43.980;2023-06-22T03:12:41;9.38;;;4.68;;
69981;SDS011;57319;56.274;43.980;2023-06-22T03:15:09;15.05;;;4.47;;
69981;SDS011;57319;56.274;43.980;2023-06-22T03:17:37;7.57;;;4.50;;
69981;SDS011;57319;56.274;43.980;2023-06-22T03:20:07;5.97;;;4.00;;
69981;SDS011;57319;56.274;43.980;2023-06-22T03:22:36;11.88;;;4.15;;
69981;SDS011;57319;56.274;43.980;2023-06-22T03:25:09;5.45;;;3.80;;
69981;SDS011;57319;56.274;43.980;2023-06-22T03:30:07;9.90;;;4.13;;
69981;SDS011;57319;56.274;43.980;2023-06-22T03:32:34;6.97;;;4.10;;
69981;SDS011;57319;56.274;43.980;2023-06-22T03:35:00;16.15;;;4.60;;
69981;SDS011;57319;56.274;43.980;2023-06-22T03:37:26;4.00;;;3.53;;
69981;SDS011;57319;56.274;43.980;2023-06-22T03:39:52;4.82;;;3.60;;
69981;SDS011;57319;56.274;43.980;2023-06-22T03:42:19;26.30;;;4.32;;
69981;SDS011;57319;56.274;43.980;2023-06-22T03:44:44;8.82;;;3.75;;
69981;SDS011;57319;56.274;43.980;2023-06-22T03:47:10;8.57;;;3.70;;
69981;SDS011;57319;56.274;43.980;2023-06-22T03:49:36;10.98;;;4.15;;
69981;SDS011;57319;56.274;43.980;2023-06-22T03:52:02;9.70;;;3.38;;
69981;SDS011;57319;56.274;43.980;2023-06-22T03:54:28;7.25;;;3.53;;
69981;SDS011;57319;56.274;43.980;2023-06-22T03:56:55;10.15;;;3.83;;
69981;SDS011;57319;56.274;43.980;2023-06-22T03:59:22;7.65;;;3.95;;
69981;SDS011;57319;56.274;43.980;2023-06-22T04:01:48;5.72;;;3.90;;
69981;SDS011;57319;56.274;43.980;2023-06-22T04:04:14;3.80;;;3.47;;
69981;SDS011;57319;56.274;43.980;2023-06-22T04:06:39;11.20;;;3.92;;
69981;SDS011;57319;56.274;43.980;2023-06-22T04:09:05;10.13;;;4.07;;
69981;SDS011;57319;56.274;43.980;2023-06-22T04:11:31;12.85;;;3.63;;
69981;SDS011;57319;56.274;43.980;2023-06-22T04:13:57;14.30;;;4.50;;
69981;SDS011;57319;56.274;43.980;2023-06-22T04:16:22;10.43;;;3.58;;
69981;SDS011;57319;56.274;43.980;2023-06-22T04:18:48;8.32;;;3.72;;
69981;SDS011;57319;56.274;43.980;2023-06-22T04:21:14;16.00;;;4.10;;
69981;SDS011;57319;56.274;43.980;2023-06-22T04:23:40;9.63;;;3.67;;
69981;SDS011;57319;56.274;43.980;2023-06-22T04:28:41;6.32;;;3.58;;
69981;SDS011;57319;56.274;43.980;2023-06-22T04:31:07;13.77;;;4.10;;
69981;SDS011;57319;56.274;43.980;2023-06-22T04:33:33;5.88;;;3.72;;
69981;SDS011;57319;56.274;43.980;2023-06-22T04:35:59;14.93;;;4.00;;
69981;SDS011;57319;56.274;43.980;2023-06-22T04:38:29;4.80;;;3.80;;
69981;SDS011;57319;56.274;43.980;2023-06-22T04:40:58;7.85;;;4.40;;
69981;SDS011;57319;56.274;43.980;2023-06-22T04:43:26;11.95;;;3.60;;
69981;SDS011;57319;56.274;43.980;2023-06-22T04:45:55;9.52;;;4.65;;
69981;SDS011;57319;56.274;43.980;2023-06-22T04:48:22;8.20;;;4.30;;
69981;SDS011;57319;56.274;43.980;2023-06-22T04:50:47;16.30;;;4.47;;
69981;SDS011;57319;56.274;43.980;2023-06-22T04:53:13;15.00;;;4.78;;
69981;SDS011;57319;56.274;43.980;2023-06-22T04:55:39;30.65;;;5.03;;
69981;SDS011;57319;56.274;43.980;2023-06-22T04:58:07;16.20;;;5.05;;
69981;SDS011;57319;56.274;43.980;2023-06-22T05:00:32;20.70;;;4.80;;
69981;SDS011;57319;56.274;43.980;2023-06-22T05:03:01;16.45;;;4.10;;
69981;SDS011;57319;56.274;43.980;2023-06-22T05:05:28;14.85;;;3.97;;
69981;SDS011;57319;56.274;43.980;2023-06-22T05:07:56;6.05;;;3.70;;
69981;SDS011;57319;56.274;43.980;2023-06-22T05:10:25;11.82;;;3.60;;
69981;SDS011;57319;56.274;43.980;2023-06-22T05:12:51;3.95;;;3.53;;
69981;SDS011;57319;56.274;43.980;2023-06-22T05:15:17;14.20;;;4.20;;
69981;SDS011;57319;56.274;43.980;2023-06-22T05:17:45;15.82;;;4.00;;
69981;SDS011;57319;56.274;43.980;2023-06-22T05:20:11;15.70;;;3.92;;
69981;SDS011;57319;56.274;43.980;2023-06-22T05:22:38;11.80;;;3.88;;
69981;SDS011;57319;56.274;43.980;2023-06-22T05:25:05;8.30;;;3.80;;
69981;SDS011;57319;56.274;43.980;2023-06-22T05:27:34;7.95;;;3.50;;
69981;SDS011;57319;56.274;43.980;2023-06-22T05:30:04;12.93;;;3.35;;
69981;SDS011;57319;56.274;43.980;2023-06-22T05:32:34;15.73;;;3.65;;
69981;SDS011;57319;56.274;43.980;2023-06-22T05:35:00;19.05;;;3.58;;
69981;SDS011;57319;56.274;43.980;2023-06-22T05:37:26;7.05;;;3.13;;
69981;SDS011;57319;56.274;43.980;2023-06-22T05:39:52;19.63;;;3.17;;
69981;SDS011;57319;56.274;43.980;2023-06-22T05:42:19;3.03;;;2.45;;
69981;SDS011;57319;56.274;43.980;2023-06-22T05:44:45;5.32;;;2.83;;
69981;SDS011;57319;56.274;43.980;2023-06-22T05:47:11;7.85;;;2.97;;
69981;SDS011;57319;56.274;43.980;2023-06-22T05:49:37;21.00;;;3.38;;
69981;SDS011;57319;56.274;43.980;2023-06-22T05:52:03;8.50;;;2.65;;
69981;SDS011;57319;56.274;43.980;2023-06-22T05:54:29;8.90;;;3.15;;
69981;SDS011;57319;56.274;43.980;2023-06-22T05:56:55;6.20;;;3.05;;
69981;SDS011;57319;56.274;43.980;2023-06-22T05:59:21;4.93;;;2.47;;
69981;SDS011;57319;56.274;43.980;2023-06-22T06:01:47;6.78;;;2.38;;
69981;SDS011;57319;56.274;43.980;2023-06-22T06:04:16;2.50;;;2.30;;
69981;SDS011;57319;56.274;43.980;2023-06-22T06:06:43;10.23;;;2.25;;
69981;SDS011;57319;56.274;43.980;2023-06-22T06:09:08;7.35;;;3.05;;
69981;SDS011;57319;56.274;43.980;2023-06-22T06:11:34;5.25;;;2.83;;
69981;SDS011;57319;56.274;43.980;2023-06-22T06:14:00;4.65;;;2.67;;
69981;SDS011;57319;56.274;43.980;2023-06-22T06:16:25;13.05;;;2.85;;
69981;SDS011;57319;56.274;43.980;2023-06-22T06:18:51;9.88;;;3.20;;
69981;SDS011;57319;56.274;43.980;2023-06-22T06:21:18;7.53;;;2.92;;
69981;SDS011;57319;56.274;43.980;2023-06-22T06:23:44;4.65;;;3.20;;
69981;SDS011;57319;56.274;43.980;2023-06-22T06:26:10;3.50;;;3.30;;
69981;SDS011;57319;56.274;43.980;2023-06-22T06:28:35;5.25;;;3.17;;
69981;SDS011;57319;56.274;43.980;2023-06-22T06:31:01;3.38;;;3.10;;
69981;SDS011;57319;56.274;43.980;2023-06-22T06:33:27;4.22;;;3.45;;
69981;SDS011;57319;56.274;43.980;2023-06-22T06:35:53;7.13;;;3.30;;
69981;SDS011;57319;56.274;43.980;2023-06-22T06:38:21;3.05;;;2.85;;
69981;SDS011;57319;56.274;43.980;2023-06-22T06:40:46;5.85;;;3.10;;
69981;SDS011;57319;56.274;43.980;2023-06-22T06:43:14;10.35;;;3.28;;
69981;SDS011;57319;56.274;43.980;2023-06-22T06:45:39;7.05;;;3.45;;
69981;SDS011;57319;56.274;43.980;2023-06-22T06:48:05;5.57;;;2.80;;
69981;SDS011;57319;56.274;43.980;2023-06-22T11:58:45;20.52;;;3.13;;
69981;SDS011;57319;56.274;43.980;2023-06-22T12:01:10;14.30;;;2.88;;
69981;SDS011;57319;56.274;43.980;2023-06-22T12:03:40;4.10;;;2.42;;
69981;SDS011;57319;56.274;43.980;2023-06-22T12:06:08;5.18;;;2.42;;
69981;SDS011;57319;56.274;43.980;2023-06-22T12:08:34;6.95;;;2.47;;
69981;SDS011;57319;56.274;43.980;2023-06-22T12:11:00;10.60;;;2.40;;
69981;SDS011;57319;56.274;43.980;2023-06-22T12:13:25;4.88;;;2.30;;
69981;SDS011;57319;56.274;43.980;2023-06-22T12:15:51;2.83;;;2.10;;
69981;SDS011;57319;56.274;43.980;2023-06-22T12:18:18;5.30;;;2.58;;
69981;SDS011;57319;56.274;43.980;2023-06-22T12:20:46;8.73;;;2.65;;
69981;SDS011;57319;56.274;43.980;2023-06-22T12:23:11;7.45;;;2.30;;
69981;SDS011;57319;56.274;43.980;2023-06-22T12:25:37;2.67;;;2.45;;
69981;SDS011;57319;56.274;43.980;2023-06-22T12:28:03;5.47;;;2.83;;
69981;SDS011;57319;56.274;43.980;2023-06-22T12:30:30;3.67;;;2.42;;
69981;SDS011;57319;56.274;43.980;2023-06-22T12:32:56;7.72;;;2.55;;
69981;SDS011;57319;56.274;43.980;2023-06-22T12:35:21;3.38;;;2.80;;
69981;SDS011;57319;56.274;43.980;2023-06-22T12:37:47;2.65;;;2.55;;
69981;SDS011;57319;56.274;43.980;2023-06-22T12:40:13;3.72;;;3.47;;
69981;SDS011;57319;56.274;43.980;2023-06-22T12:42:39;3.20;;;3.00;;
69981;SDS011;57319;56.274;43.980;2023-06-22T12:45:05;6.63;;;3.03;;
69981;SDS011;57319;56.274;43.980;2023-06-22T12:47:32;2.83;;;2.70;;
69981;SDS011;57319;56.274;43.980;2023-06-22T12:49:58;21.35;;;4.22;;
69981;SDS011;57319;56.274;43.980;2023-06-22T12:52:23;2.45;;;2.35;;
69981;SDS011;57319;56.274;43.980;2023-06-22T12:54:49;4.30;;;2.60;;
69981;SDS011;57319;56.274;43.980;2023-06-22T12:57:15;5.88;;;2.80;;
69981;SDS011;57319;56.274;43.980;2023-06-22T12:59:42;4.25;;;2.30;;
69981;SDS011;57319;56.274;43.980;2023-06-22T13:02:08;6.97;;;2.70;;
69981;SDS011;57319;56.274;43.980;2023-06-22T13:04:34;12.38;;;3.17;;
69981;SDS011;57319;56.274;43.980;2023-06-22T13:07:00;6.18;;;2.53;;
69981;SDS011;57319;56.274;43.980;2023-06-22T13:09:25;5.45;;;2.63;;
69981;SDS011;57319;56.274;43.980;2023-06-22T13:11:51;8.88;;;3.47;;
69981;SDS011;57319;56.274;43.980;2023-06-22T13:14:18;7.93;;;3.55;;
69981;SDS011;57319;56.274;43.980;2023-06-22T13:16:43;3.80;;;3.50;;
69981;SDS011;57319;56.274;43.980;2023-06-22T13:19:09;4.50;;;3.10;;
69981;SDS011;57319;56.274;43.980;2023-06-22T13:21:35;4.18;;;3.03;;
69981;SDS011;57319;56.274;43.980;2023-06-22T13:24:00;3.20;;;3.10;;
69981;SDS011;57319;56.274;43.980;2023-06-22T13:26:26;5.25;;;4.75;;
69981;SDS011;57319;56.274;43.980;2023-06-22T13:28:54;11.20;;;3.58;;
69981;SDS011;57319;56.274;43.980;2023-06-22T13:31:19;4.15;;;3.50;;
69981;SDS011;57319;56.274;43.980;2023-06-22T13:33:45;11.60;;;3.25;;
69981;SDS011;57319;56.274;43.980;2023-06-22T13:36:13;13.88;;;3.65;;
69981;SDS011;57319;56.274;43.980;2023-06-22T13:38:39;7.07;;;3.72;;
69981;SDS011;57319;56.274;43.980;2023-06-22T13:41:05;4.22;;;3.88;;
69981;SDS011;57319;56.274;43.980;2023-06-22T13:43:31;9.32;;;4.28;;
69981;SDS011;57319;56.274;43.980;2023-06-22T13:45:57;5.78;;;3.17;;
69981;SDS011;57319;56.274;43.980;2023-06-22T13:48:23;3.80;;;3.60;;
69981;SDS011;57319;56.274;43.980;2023-06-22T13:50:51;4.20;;;3.90;;
69981;SDS011;57319;56.274;43.980;2023-06-22T13:53:17;12.35;;;4.75;;
69981;SDS011;57319;56.274;43.980;2023-06-22T13:55:43;4.03;;;3.53;;
69981;SDS011;57319;56.274;43.980;2023-06-22T13:58:09;9.88;;;3.13;;
69981;SDS011;57319;56.274;43.980;2023-06-22T14:00:34;4.55;;;3.60;;
69981;SDS011;57319;56.274;43.980;2023-06-22T14:03:00;4.47;;;4.07;;
69981;SDS011;57319;56.274;43.980;2023-06-22T14:05:26;7.25;;;3.30;;
69981;SDS011;57319;56.274;43.980;2023-06-22T14:07:51;3.60;;;3.40;;
69981;SDS011;57319;56.274;43.980;2023-06-22T14:10:17;5.82;;;3.67;;
69981;SDS011;57319;56.274;43.980;2023-06-22T14:12:43;5.90;;;3.45;;
69981;SDS011;57319;56.274;43.980;2023-06-22T14:15:08;7.53;;;3.50;;
69981;SDS011;57319;56.274;43.980;2023-06-22T14:17:34;9.05;;;3.85;;
69981;SDS011;57319;56.274;43.980;2023-06-22T14:20:00;4.88;;;3.75;;
69981;SDS011;57319;56.274;43.980;2023-06-22T14:22:25;14.32;;;3.90;;
69981;SDS011;57319;56.274;43.980;2023-06-22T14:24:54;4.40;;;3.78;;
69981;SDS011;57319;56.274;43.980;2023-06-22T14:27:21;5.20;;;3.60;;
69981;SDS011;57319;56.274;43.980;2023-06-22T14:29:46;4.78;;;4.18;;
69981;SDS011;57319;56.274;43.980;2023-06-22T14:32:12;4.03;;;3.72;;
69981;SDS011;57319;56.274;43.980;2023-06-22T14:34:38;4.32;;;3.53;;
69981;SDS011;57319;56.274;43.980;2023-06-22T14:37:07;19.95;;;3.70;;
69981;SDS011;57319;56.274;43.980;2023-06-22T14:39:35;5.05;;;3.92;;
69981;SDS011;57319;56.274;43.980;2023-06-22T14:42:00;7.55;;;5.18;;
69981;SDS011;57319;56.274;43.980;2023-06-22T14:44:26;8.63;;;5.15;;
69981;SDS011;57319;56.274;43.980;2023-06-22T14:46:54;9.77;;;6.55;;
69981;SDS011;57319;56.274;43.980;2023-06-22T14:49:21;13.88;;;7.03;;
69981;SDS011;57319;56.274;43.980;2023-06-22T14:51:46;7.88;;;6.07;;
69981;SDS011;57319;56.274;43.980;2023-06-22T14:54:12;9.18;;;4.30;;
69981;SDS011;57319;56.274;43.980;2023-06-22T14:56:37;13.88;;;6.68;;
69981;SDS011;57319;56.274;43.980;2023-06-22T14:59:03;19.98;;;6.35;;
69981;SDS011;57319;56.274;43.980;2023-06-22T15:01:29;24.63;;;4.85;;
69981;SDS011;57319;56.274;43.980;2023-06-22T15:03:55;26.10;;;4.75;;
69981;SDS011;57319;56.274;43.980;2023-06-22T15:06:20;11.85;;;4.97;;
69981;SDS011;57319;56.274;43.980;2023-06-22T15:08:47;11.02;;;4.53;;
69981;SDS011;57319;56.274;43.980;2023-06-22T15:11:13;7.57;;;4.32;;
69981;SDS011;57319;56.274;43.980;2023-06-22T15:13:39;17.73;;;4.45;;
69981;SDS011;57319;56.274;43.980;2023-06-22T15:16:05;9.55;;;4.85;;
69981;SDS011;57319;56.274;43.980;2023-06-22T15:18:31;8.73;;;4.28;;
69981;SDS011;57319;56.274;43.980;2023-06-22T15:20:59;9.35;;;4.60;;
69981;SDS011;57319;56.274;43.980;2023-06-22T15:23:27;15.27;;;4.63;;
69981;SDS011;57319;56.274;43.980;2023-06-22T15:25:54;11.93;;;4.13;;
69981;SDS011;57319;56.274;43.980;2023-06-22T15:28:20;14.75;;;4.40;;
69981;SDS011;57319;56.274;43.980;2023-06-22T15:30:46;9.20;;;4.28;;
69981;SDS011;57319;56.274;43.980;2023-06-22T15:33:13;32.10;;;8.13;;
69981;SDS011;57319;56.274;43.980;2023-06-22T15:35:39;12.73;;;4.93;;
69981;SDS011;57319;56.274;43.980;2023-06-22T15:38:05;6.18;;;4.07;;
69981;SDS011;57319;56.274;43.980;2023-06-22T15:40:30;5.15;;;3.85;;
69981;SDS011;57319;56.274;43.980;2023-06-22T15:42:56;8.20;;;3.72;;
69981;SDS011;57319;56.274;43.980;2023-06-22T15:45:22;4.38;;;4.07;;
69981;SDS011;57319;56.274;43.980;2023-06-22T15:47:48;5.70;;;3.67;;
69981;SDS011;57319;56.274;43.980;2023-06-22T15:50:13;7.50;;;3.97;;
69981;SDS011;57319;56.274;43.980;2023-06-22T15:52:40;3.50;;;3.30;;
69981;SDS011;57319;56.274;43.980;2023-06-22T15:55:06;4.15;;;3.85;;
69981;SDS011;57319;56.274;43.980;2023-06-22T15:57:34;6.50;;;4.20;;
69981;SDS011;57319;56.274;43.980;2023-06-22T16:00:00;12.43;;;4.80;;
69981;SDS011;57319;56.274;43.980;2023-06-22T16:02:26;13.70;;;5.50;;
69981;SDS011;57319;56.274;43.980;2023-06-22T16:04:53;5.72;;;5.18;;
69981;SDS011;57319;56.274;43.980;2023-06-22T16:07:21;8.52;;;5.13;;
69981;SDS011;57319;56.274;43.980;2023-06-22T16:09:47;8.00;;;5.10;;
69981;SDS011;57319;56.274;43.980;2023-06-22T16:12:12;6.07;;;4.07;;
69981;SDS011;57319;56.274;43.980;2023-06-22T16:14:38;8.63;;;3.75;;
69981;SDS011;57319;56.274;43.980;2023-06-22T16:17:05;13.73;;;4.38;;
69981;SDS011;57319;56.274;43.980;2023-06-22T16:19:31;8.30;;;4.68;;
69981;SDS011;57319;56.274;43.980;2023-06-22T16:21:57;12.70;;;4.93;;
69981;SDS011;57319;56.274;43.980;2023-06-22T16:24:23;5.13;;;4.65;;
69981;SDS011;57319;56.274;43.980;2023-06-22T16:26:48;6.88;;;4.80;;
69981;SDS011;57319;56.274;43.980;2023-06-22T16:29:15;9.10;;;4.53;;
69981;SDS011;57319;56.274;43.980;2023-06-22T16:31:41;7.18;;;4.93;;
69981;SDS011;57319;56.274;43.980;2023-06-22T16:34:06;4.60;;;4.20;;
69981;SDS011;57319;56.274;43.980;2023-06-22T16:36:32;11.50;;;4.40;;
69981;SDS011;57319;56.274;43.980;2023-06-22T16:38:57;8.57;;;4.50;;
69981;SDS011;57319;56.274;43.980;2023-06-22T16:41:23;6.20;;;5.03;;
69981;SDS011;57319;56.274;43.980;2023-06-22T16:43:51;8.27;;;4.38;;
69981;SDS011;57319;56.274;43.980;2023-06-22T16:46:17;5.55;;;4.53;;
69981;SDS011;57319;56.274;43.980;2023-06-22T16:48:49;7.63;;;4.03;;
69981;SDS011;57319;56.274;43.980;2023-06-22T16:51:16;4.40;;;4.05;;
69981;SDS011;57319;56.274;43.980;2023-06-22T16:53:42;9.32;;;4.60;;
69981;SDS011;57319;56.274;43.980;2023-06-22T16:56:09;9.80;;;4.60;;
69981;SDS011;57319;56.274;43.980;2023-06-22T16:58:36;4.50;;;4.10;;
69981;SDS011;57319;56.274;43.980;2023-06-22T17:01:04;6.82;;;4.25;;
69981;SDS011;57319;56.274;43.980;2023-06-22T17:03:33;6.57;;;4.07;;
69981;SDS011;57319;56.274;43.980;2023-06-22T17:08:34;7.65;;;4.40;;
69981;SDS011;57319;56.274;43.980;2023-06-22T17:11:01;5.60;;;4.10;;
69981;SDS011;57319;56.274;43.980;2023-06-22T17:13:27;4.72;;;4.30;;
69981;SDS011;57319;56.274;43.980;2023-06-22T17:15:54;4.32;;;3.92;;
69981;SDS011;57319;56.274;43.980;2023-06-22T17:18:26;8.95;;;4.85;;
69981;SDS011;57319;56.274;43.980;2023-06-22T17:20:53;4.65;;;4.13;;
69981;SDS011;57319;56.274;43.980;2023-06-22T17:23:19;4.60;;;4.15;;
69981;SDS011;57319;56.274;43.980;2023-06-22T17:25:45;12.45;;;4.03;;
69981;SDS011;57319;56.274;43.980;2023-06-22T17:28:12;16.02;;;4.40;;
69981;SDS011;57319;56.274;43.980;2023-06-22T17:30:37;5.95;;;4.32;;
69981;SDS011;57319;56.274;43.980;2023-06-22T17:33:03;4.63;;;4.25;;
69981;SDS011;57319;56.274;43.980;2023-06-22T17:35:33;5.15;;;3.80;;
69981;SDS011;57319;56.274;43.980;2023-06-22T17:37:59;5.75;;;3.75;;
69981;SDS011;57319;56.274;43.980;2023-06-22T17:40:25;6.47;;;3.58;;
69981;SDS011;57319;56.274;43.980;2023-06-22T17:42:55;3.53;;;3.33;;
69981;SDS011;57319;56.274;43.980;2023-06-22T17:45:31;7.32;;;3.75;;
69981;SDS011;57319;56.274;43.980;2023-06-22T17:47:56;6.90;;;4.43;;
69981;SDS011;57319;56.274;43.980;2023-06-22T17:50:25;3.95;;;3.75;;
69981;SDS011;57319;56.274;43.980;2023-06-22T17:52:51;8.13;;;4.20;;
69981;SDS011;57319;56.274;43.980;2023-06-22T17:55:22;7.88;;;4.18;;
69981;SDS011;57319;56.274;43.980;2023-06-22T17:57:56;5.93;;;4.13;;
69981;SDS011;57319;56.274;43.980;2023-06-22T18:00:23;4.63;;;4.38;;
69981;SDS011;57319;56.274;43.980;2023-06-22T18:02:50;4.78;;;4.07;;
69981;SDS011;57319;56.274;43.980;2023-06-22T18:05:17;5.90;;;4.03;;
69981;SDS011;57319;56.274;43.980;2023-06-22T18:07:53;5.45;;;4.72;;
69981;SDS011;57319;56.274;43.980;2023-06-22T18:10:20;4.40;;;4.10;;
69981;SDS011;57319;56.274;43.980;2023-06-22T18:12:48;4.53;;;4.10;;
69981;SDS011;57319;56.274;43.980;2023-06-22T18:15:14;8.10;;;4.13;;
69981;SDS011;57319;56.274;43.980;2023-06-22T18:17:41;5.70;;;4.78;;
69981;SDS011;57319;56.274;43.980;2023-06-22T18:20:06;4.72;;;4.20;;
69981;SDS011;57319;56.274;43.980;2023-06-22T18:22:35;6.95;;;4.90;;
69981;SDS011;57319;56.274;43.980;2023-06-22T18:25:02;4.88;;;4.28;;
69981;SDS011;57319;56.274;43.980;2023-06-22T18:27:31;6.28;;;4.70;;
69981;SDS011;57319;56.274;43.980;2023-06-22T18:30:00;4.93;;;4.63;;
69981;SDS011;57319;56.274;43.980;2023-06-22T18:32:31;5.57;;;4.43;;
69981;SDS011;57319;56.274;43.980;2023-06-22T18:34:57;10.93;;;5.30;;
69981;SDS011;57319;56.274;43.980;2023-06-22T18:37:23;5.65;;;4.45;;
69981;SDS011;57319;56.274;43.980;2023-06-22T18:39:51;12.90;;;4.75;;
69981;SDS011;57319;56.274;43.980;2023-06-22T18:42:20;10.10;;;4.38;;
69981;SDS011;57319;56.274;43.980;2023-06-22T18:44:51;5.95;;;4.70;;
69981;SDS011;57319;56.274;43.980;2023-06-22T18:47:25;5.18;;;4.78;;
69981;SDS011;57319;56.274;43.980;2023-06-22T18:49:52;4.97;;;4.50;;
69981;SDS011;57319;56.274;43.980;2023-06-22T18:52:23;6.85;;;4.28;;
69981;SDS011;57319;56.274;43.980;2023-06-22T18:54:50;8.68;;;4.40;;
69981;SDS011;57319;56.274;43.980;2023-06-22T18:59:58;6.97;;;5.10;;
69981;SDS011;57319;56.274;43.980;2023-06-22T19:02:33;5.07;;;4.57;;
69981;SDS011;57319;56.274;43.980;2023-06-22T19:10:38;4.88;;;4.50;;
69981;SDS011;57319;56.274;43.980;2023-06-22T19:15:36;5.63;;;5.03;;
69981;SDS011;57319;56.274;43.980;2023-06-22T19:18:20;6.10;;;5.03;;
69981;SDS011;57319;56.274;43.980;2023-06-22T19:20:52;9.75;;;5.10;;
69981;SDS011;57319;56.274;43.980;2023-06-22T19:25:53;11.13;;;5.70;;
69981;SDS011;57319;56.274;43.980;2023-06-22T19:28:24;6.45;;;5.50;;
69981;SDS011;57319;56.274;43.980;2023-06-22T19:30:54;6.43;;;5.45;;
69981;SDS011;57319;56.274;43.980;2023-06-22T19:33:21;7.65;;;5.63;;
69981;SDS011;57319;56.274;43.980;2023-06-22T19:35:48;5.60;;;5.10;;
69981;SDS011;57319;56.274;43.980;2023-06-22T19:38:18;7.57;;;5.93;;
69981;SDS011;57319;56.274;43.980;2023-06-22T19:40:44;6.93;;;5.72;;
69981;SDS011;57319;56.274;43.980;2023-06-22T19:43:13;6.07;;;5.47;;
69981;SDS011;57319;56.274;43.980;2023-06-22T19:45:40;8.48;;;5.18;;
69981;SDS011;57319;56.274;43.980;2023-06-22T19:48:09;5.63;;;5.10;;
69981;SDS011;57319;56.274;43.980;2023-06-22T19:50:36;5.82;;;5.32;;
69981;SDS011;57319;56.274;43.980;2023-06-22T19:53:12;4.82;;;4.40;;
69981;SDS011;57319;56.274;43.980;2023-06-22T19:55:39;10.70;;;5.68;;
69981;SDS011;57319;56.274;43.980;2023-06-22T19:58:08;5.25;;;4.68;;
69981;SDS011;57319;56.274;43.980;2023-06-22T20:00:35;8.40;;;4.88;;
69981;SDS011;57319;56.274;43.980;2023-06-22T20:03:01;9.95;;;4.97;;
69981;SDS011;57319;56.274;43.980;2023-06-22T20:05:28;5.07;;;4.57;;
69981;SDS011;57319;56.274;43.980;2023-06-22T20:07:54;5.63;;;4.65;;
69981;SDS011;57319;56.274;43.980;2023-06-22T20:10:20;12.25;;;5.07;;
69981;SDS011;57319;56.274;43.980;2023-06-22T20:12:50;6.65;;;4.70;;